sensor_id;sensor_type;location;lat;lon;timestamp;temperature;humidity
19809;DHT22;48538;32.784;-96.802;2024-01-25T00:00:49;13.30;99.90
19809;DHT22;48538;32.784;-96.802;2024-01-25T00:03:15;13.30;99.90
19809;DHT22;48538;32.784;-96.802;2024-01-25T00:05:41;13.30;99.90
19809;DHT22;48538;32.784;-96.802;2024-01-25T00:08:08;13.40;99.90
19809;DHT22;48538;32.784;-96.802;2024-01-25T00:10:34;13.40;99.90
19809;DHT22;48538;32.784;-96.802;2024-01-25T00:13:00;13.40;99.90
19809;DHT22;48538;32.784;-96.802;2024-01-25T00:15:27;13.30;99.90
19809;DHT22;48538;32.784;-96.802;2024-01-25T00:17:53;13.30;99.90
19809;DHT22;48538;32.784;-96.802;2024-01-25T00:20:20;13.40;99.90
19809;DHT22;48538;32.784;-96.802;2024-01-25T00:22:46;13.40;99.90
19809;DHT22;48538;32.784;-96.802;2024-01-25T00:25:12;13.30;99.90
19809;DHT22;48538;32.784;-96.802;2024-01-25T00:27:38;13.30;99.90
19809;DHT22;48538;32.784;-96.802;2024-01-25T00:30:05;13.30;99.90
19809;DHT22;48538;32.784;-96.802;2024-01-25T00:32:32;13.30;99.90
19809;DHT22;48538;32.784;-96.802;2024-01-25T00:34:58;13.30;99.90
19809;DHT22;48538;32.784;-96.802;2024-01-25T00:37:25;13.20;99.90
19809;DHT22;48538;32.784;-96.802;2024-01-25T00:39:51;13.20;99.90
19809;DHT22;48538;32.784;-96.802;2024-01-25T00:42:22;13.20;99.90
19809;DHT22;48538;32.784;-96.802;2024-01-25T00:44:49;13.30;99.90
19809;DHT22;48538;32.784;-96.802;2024-01-25T00:47:16;13.30;99.90
19809;DHT22;48538;32.784;-96.802;2024-01-25T00:49:43;13.30;99.90
19809;DHT22;48538;32.784;-96.802;2024-01-25T00:52:10;13.30;99.90
19809;DHT22;48538;32.784;-96.802;2024-01-25T00:54:36;13.40;99.90
19809;DHT22;48538;32.784;-96.802;2024-01-25T00:57:03;13.40;99.90
19809;DHT22;48538;32.784;-96.802;2024-01-25T00:59:29;13.40;99.90
19809;DHT22;48538;32.784;-96.802;2024-01-25T01:01:56;13.40;99.90
19809;DHT22;48538;32.784;-96.802;2024-01-25T01:04:25;13.40;99.90
19809;DHT22;48538;32.784;-96.802;2024-01-25T01:06:52;13.50;99.90
19809;DHT22;48538;32.784;-96.802;2024-01-25T01:09:18;13.50;99.90
19809;DHT22;48538;32.784;-96.802;2024-01-25T01:11:45;13.50;99.90
19809;DHT22;48538;32.784;-96.802;2024-01-25T01:14:11;13.50;99.90
19809;DHT22;48538;32.784;-96.802;2024-01-25T01:16:38;13.50;99.90
19809;DHT22;48538;32.784;-96.802;2024-01-25T01:19:04;13.60;99.90
19809;DHT22;48538;32.784;-96.802;2024-01-25T01:21:36;13.60;99.90
19809;DHT22;48538;32.784;-96.802;2024-01-25T01:24:02;13.60;99.90
19809;DHT22;48538;32.784;-96.802;2024-01-25T01:26:29;13.60;99.90
19809;DHT22;48538;32.784;-96.802;2024-01-25T01:28:55;13.60;99.90
19809;DHT22;48538;32.784;-96.802;2024-01-25T01:31:21;13.60;99.90
19809;DHT22;48538;32.784;-96.802;2024-01-25T01:33:48;13.70;99.90
19809;DHT22;48538;32.784;-96.802;2024-01-25T01:36:14;13.70;99.90
19809;DHT22;48538;32.784;-96.802;2024-01-25T01:38:40;13.70;99.90
19809;DHT22;48538;32.784;-96.802;2024-01-25T01:41:08;13.70;99.90
19809;DHT22;48538;32.784;-96.802;2024-01-25T01:43:35;13.70;99.90
19809;DHT22;48538;32.784;-96.802;2024-01-25T01:46:10;13.70;99.90
19809;DHT22;48538;32.784;-96.802;2024-01-25T01:48:39;13.70;99.90
19809;DHT22;48538;32.784;-96.802;2024-01-25T01:51:09;13.70;99.90
19809;DHT22;48538;32.784;-96.802;2024-01-25T01:53:36;13.70;99.90
19809;DHT22;48538;32.784;-96.802;2024-01-25T01:56:02;13.70;99.90
19809;DHT22;48538;32.784;-96.802;2024-01-25T01:58:34;13.70;99.90
19809;DHT22;48538;32.784;-96.802;2024-01-25T02:01:03;13.70;99.90
19809;DHT22;48538;32.784;-96.802;2024-01-25T02:03:29;13.70;99.90
19809;DHT22;48538;32.784;-96.802;2024-01-25T02:05:55;13.70;99.90
19809;DHT22;48538;32.784;-96.802;2024-01-25T02:08:24;13.70;99.90
19809;DHT22;48538;32.784;-96.802;2024-01-25T02:10:52;13.70;99.90
19809;DHT22;48538;32.784;-96.802;2024-01-25T02:13:20;13.70;99.90
19809;DHT22;48538;32.784;-96.802;2024-01-25T02:15:49;13.70;99.90
19809;DHT22;48538;32.784;-96.802;2024-01-25T02:18:15;13.70;99.90
19809;DHT22;48538;32.784;-96.802;2024-01-25T02:20:41;13.70;99.90
19809;DHT22;48538;32.784;-96.802;2024-01-25T02:23:07;13.70;99.90
19809;DHT22;48538;32.784;-96.802;2024-01-25T02:25:34;13.60;99.90
19809;DHT22;48538;32.784;-96.802;2024-01-25T02:28:00;13.40;99.90
19809;DHT22;48538;32.784;-96.802;2024-01-25T02:30:26;13.40;99.90
19809;DHT22;48538;32.784;-96.802;2024-01-25T02:32:53;13.40;99.90
19809;DHT22;48538;32.784;-96.802;2024-01-25T02:35:19;13.20;99.90
19809;DHT22;48538;32.784;-96.802;2024-01-25T02:37:45;13.20;99.90
19809;DHT22;48538;32.784;-96.802;2024-01-25T02:40:12;13.20;99.90
19809;DHT22;48538;32.784;-96.802;2024-01-25T02:42:38;13.30;99.90
19809;DHT22;48538;32.784;-96.802;2024-01-25T02:45:05;13.30;99.90
19809;DHT22;48538;32.784;-96.802;2024-01-25T02:47:31;13.30;99.90
19809;DHT22;48538;32.784;-96.802;2024-01-25T02:49:57;13.30;99.90
19809;DHT22;48538;32.784;-96.802;2024-01-25T02:52:24;13.30;99.90
19809;DHT22;48538;32.784;-96.802;2024-01-25T02:54:50;13.20;99.90
19809;DHT22;48538;32.784;-96.802;2024-01-25T02:57:17;13.10;99.90
19809;DHT22;48538;32.784;-96.802;2024-01-25T02:59:44;13.00;99.90
19809;DHT22;48538;32.784;-96.802;2024-01-25T03:02:10;13.00;99.90
19809;DHT22;48538;32.784;-96.802;2024-01-25T03:04:36;13.00;99.90
19809;DHT22;48538;32.784;-96.802;2024-01-25T03:07:03;13.00;99.90
19809;DHT22;48538;32.784;-96.802;2024-01-25T03:09:29;13.00;99.90
19809;DHT22;48538;32.784;-96.802;2024-01-25T03:11:56;13.10;99.90
19809;DHT22;48538;32.784;-96.802;2024-01-25T03:14:22;13.10;99.90
19809;DHT22;48538;32.784;-96.802;2024-01-25T03:16:49;13.00;99.90
19809;DHT22;48538;32.784;-96.802;2024-01-25T03:19:15;13.00;99.90
19809;DHT22;48538;32.784;-96.802;2024-01-25T03:21:41;12.90;99.90
19809;DHT22;48538;32.784;-96.802;2024-01-25T03:24:08;12.90;99.90
19809;DHT22;48538;32.784;-96.802;2024-01-25T03:26:34;12.80;99.90
19809;DHT22;48538;32.784;-96.802;2024-01-25T03:29:00;12.80;99.90
19809;DHT22;48538;32.784;-96.802;2024-01-25T03:31:26;12.70;99.90
19809;DHT22;48538;32.784;-96.802;2024-01-25T03:33:53;12.60;99.90
19809;DHT22;48538;32.784;-96.802;2024-01-25T03:36:19;12.60;99.90
19809;DHT22;48538;32.784;-96.802;2024-01-25T03:38:45;12.60;99.90
19809;DHT22;48538;32.784;-96.802;2024-01-25T03:41:12;12.50;99.90
19809;DHT22;48538;32.784;-96.802;2024-01-25T03:43:38;12.60;99.90
19809;DHT22;48538;32.784;-96.802;2024-01-25T03:46:04;12.50;99.90
19809;DHT22;48538;32.784;-96.802;2024-01-25T03:48:31;12.60;99.90
19809;DHT22;48538;32.784;-96.802;2024-01-25T03:50:57;12.70;99.90
19809;DHT22;48538;32.784;-96.802;2024-01-25T03:53:24;12.80;99.90
19809;DHT22;48538;32.784;-96.802;2024-01-25T03:55:50;12.90;99.90
19809;DHT22;48538;32.784;-96.802;2024-01-25T03:58:19;12.90;99.90
19809;DHT22;48538;32.784;-96.802;2024-01-25T04:00:45;13.00;99.90
19809;DHT22;48538;32.784;-96.802;2024-01-25T04:03:12;13.00;99.90
19809;DHT22;48538;32.784;-96.802;2024-01-25T04:05:38;13.10;99.90
19809;DHT22;48538;32.784;-96.802;2024-01-25T04:08:08;13.10;99.90
19809;DHT22;48538;32.784;-96.802;2024-01-25T04:10:34;13.10;99.90
19809;DHT22;48538;32.784;-96.802;2024-01-25T04:13:00;13.00;99.90
19809;DHT22;48538;32.784;-96.802;2024-01-25T04:15:27;12.90;99.90
19809;DHT22;48538;32.784;-96.802;2024-01-25T04:17:54;12.80;99.90
19809;DHT22;48538;32.784;-96.802;2024-01-25T04:20:22;12.60;99.90
19809;DHT22;48538;32.784;-96.802;2024-01-25T04:22:48;12.50;99.90
19809;DHT22;48538;32.784;-96.802;2024-01-25T04:25:15;12.40;99.90
19809;DHT22;48538;32.784;-96.802;2024-01-25T04:27:44;12.30;99.90
19809;DHT22;48538;32.784;-96.802;2024-01-25T04:30:11;12.30;99.90
19809;DHT22;48538;32.784;-96.802;2024-01-25T04:32:37;12.40;99.90
19809;DHT22;48538;32.784;-96.802;2024-01-25T04:35:04;12.40;99.90
19809;DHT22;48538;32.784;-96.802;2024-01-25T04:37:30;12.50;99.90
19809;DHT22;48538;32.784;-96.802;2024-01-25T04:39:56;12.60;99.90
19809;DHT22;48538;32.784;-96.802;2024-01-25T04:42:22;12.70;99.90
19809;DHT22;48538;32.784;-96.802;2024-01-25T04:44:49;12.60;99.90
19809;DHT22;48538;32.784;-96.802;2024-01-25T04:47:15;12.60;99.90
19809;DHT22;48538;32.784;-96.802;2024-01-25T04:49:41;12.60;99.90
19809;DHT22;48538;32.784;-96.802;2024-01-25T04:52:08;12.60;99.90
19809;DHT22;48538;32.784;-96.802;2024-01-25T04:54:34;12.70;99.90
19809;DHT22;48538;32.784;-96.802;2024-01-25T04:57:00;12.80;99.90
19809;DHT22;48538;32.784;-96.802;2024-01-25T04:59:27;12.80;99.90
19809;DHT22;48538;32.784;-96.802;2024-01-25T05:01:53;12.90;99.90
19809;DHT22;48538;32.784;-96.802;2024-01-25T05:04:21;12.90;99.90
19809;DHT22;48538;32.784;-96.802;2024-01-25T05:06:47;13.00;99.90
19809;DHT22;48538;32.784;-96.802;2024-01-25T05:09:13;13.00;99.90
19809;DHT22;48538;32.784;-96.802;2024-01-25T05:11:40;13.10;99.90
19809;DHT22;48538;32.784;-96.802;2024-01-25T05:14:06;13.10;99.90
19809;DHT22;48538;32.784;-96.802;2024-01-25T05:16:33;13.20;99.90
19809;DHT22;48538;32.784;-96.802;2024-01-25T05:19:01;13.20;99.90
19809;DHT22;48538;32.784;-96.802;2024-01-25T05:21:27;13.20;99.90
19809;DHT22;48538;32.784;-96.802;2024-01-25T05:23:53;13.20;99.90
19809;DHT22;48538;32.784;-96.802;2024-01-25T05:26:20;13.30;99.90
19809;DHT22;48538;32.784;-96.802;2024-01-25T05:28:46;13.30;99.90
19809;DHT22;48538;32.784;-96.802;2024-01-25T05:31:12;13.30;99.90
19809;DHT22;48538;32.784;-96.802;2024-01-25T05:33:42;13.30;99.90
19809;DHT22;48538;32.784;-96.802;2024-01-25T05:36:09;13.30;99.90
19809;DHT22;48538;32.784;-96.802;2024-01-25T05:38:35;13.30;99.90
19809;DHT22;48538;32.784;-96.802;2024-01-25T05:41:02;13.40;99.90
19809;DHT22;48538;32.784;-96.802;2024-01-25T05:43:28;13.40;99.90
19809;DHT22;48538;32.784;-96.802;2024-01-25T05:45:55;13.40;99.90
19809;DHT22;48538;32.784;-96.802;2024-01-25T05:48:21;13.40;99.90
19809;DHT22;48538;32.784;-96.802;2024-01-25T05:50:47;13.40;99.90
19809;DHT22;48538;32.784;-96.802;2024-01-25T05:53:13;13.40;99.90
19809;DHT22;48538;32.784;-96.802;2024-01-25T05:55:42;13.40;99.90
19809;DHT22;48538;32.784;-96.802;2024-01-25T05:58:08;13.30;99.90
19809;DHT22;48538;32.784;-96.802;2024-01-25T06:00:35;13.20;99.90
19809;DHT22;48538;32.784;-96.802;2024-01-25T06:03:01;13.20;99.90
19809;DHT22;48538;32.784;-96.802;2024-01-25T06:05:27;13.10;99.90
19809;DHT22;48538;32.784;-96.802;2024-01-25T06:07:53;12.70;99.90
19809;DHT22;48538;32.784;-96.802;2024-01-25T06:10:20;12.60;99.90
19809;DHT22;48538;32.784;-96.802;2024-01-25T06:12:46;12.70;99.90
19809;DHT22;48538;32.784;-96.802;2024-01-25T06:15:12;12.70;99.90
19809;DHT22;48538;32.784;-96.802;2024-01-25T06:17:38;12.60;99.90
19809;DHT22;48538;32.784;-96.802;2024-01-25T06:20:05;12.50;99.90
19809;DHT22;48538;32.784;-96.802;2024-01-25T06:22:31;12.50;99.90
19809;DHT22;48538;32.784;-96.802;2024-01-25T06:24:58;12.40;99.90
19809;DHT22;48538;32.784;-96.802;2024-01-25T06:27:24;12.40;99.90
19809;DHT22;48538;32.784;-96.802;2024-01-25T06:29:50;12.40;99.90
19809;DHT22;48538;32.784;-96.802;2024-01-25T06:32:16;12.20;99.90
19809;DHT22;48538;32.784;-96.802;2024-01-25T06:34:43;12.00;99.90
19809;DHT22;48538;32.784;-96.802;2024-01-25T06:37:09;11.90;99.90
19809;DHT22;48538;32.784;-96.802;2024-01-25T06:39:38;11.80;99.90
19809;DHT22;48538;32.784;-96.802;2024-01-25T06:42:04;11.70;99.90
19809;DHT22;48538;32.784;-96.802;2024-01-25T06:44:31;11.70;99.90
19809;DHT22;48538;32.784;-96.802;2024-01-25T06:46:57;11.70;99.90
19809;DHT22;48538;32.784;-96.802;2024-01-25T06:49:27;11.70;99.90
19809;DHT22;48538;32.784;-96.802;2024-01-25T06:51:53;11.70;99.90
19809;DHT22;48538;32.784;-96.802;2024-01-25T06:54:20;11.80;99.90
19809;DHT22;48538;32.784;-96.802;2024-01-25T06:56:46;11.90;99.90
19809;DHT22;48538;32.784;-96.802;2024-01-25T06:59:12;12.00;99.90
19809;DHT22;48538;32.784;-96.802;2024-01-25T07:01:39;12.10;99.90
19809;DHT22;48538;32.784;-96.802;2024-01-25T07:04:05;12.10;99.90
19809;DHT22;48538;32.784;-96.802;2024-01-25T07:06:31;12.20;99.90
19809;DHT22;48538;32.784;-96.802;2024-01-25T07:08:58;12.30;99.90
19809;DHT22;48538;32.784;-96.802;2024-01-25T07:11:24;12.40;99.90
19809;DHT22;48538;32.784;-96.802;2024-01-25T07:13:51;12.50;99.90
19809;DHT22;48538;32.784;-96.802;2024-01-25T07:16:18;12.60;99.90
19809;DHT22;48538;32.784;-96.802;2024-01-25T07:18:45;12.70;99.90
19809;DHT22;48538;32.784;-96.802;2024-01-25T07:21:11;12.70;99.90
19809;DHT22;48538;32.784;-96.802;2024-01-25T07:23:37;12.80;99.90
19809;DHT22;48538;32.784;-96.802;2024-01-25T07:26:04;12.80;99.90
19809;DHT22;48538;32.784;-96.802;2024-01-25T07:28:31;12.80;99.90
19809;DHT22;48538;32.784;-96.802;2024-01-25T07:30:57;12.70;99.90
19809;DHT22;48538;32.784;-96.802;2024-01-25T07:33:24;12.70;99.90
19809;DHT22;48538;32.784;-96.802;2024-01-25T07:35:50;12.80;99.90
19809;DHT22;48538;32.784;-96.802;2024-01-25T07:38:17;12.80;99.90
19809;DHT22;48538;32.784;-96.802;2024-01-25T07:40:43;12.80;99.90
19809;DHT22;48538;32.784;-96.802;2024-01-25T07:43:10;12.90;99.90
19809;DHT22;48538;32.784;-96.802;2024-01-25T07:45:36;13.00;99.90
19809;DHT22;48538;32.784;-96.802;2024-01-25T07:48:04;13.00;99.90
19809;DHT22;48538;32.784;-96.802;2024-01-25T07:50:30;13.00;99.90
19809;DHT22;48538;32.784;-96.802;2024-01-25T07:52:56;13.10;99.90
19809;DHT22;48538;32.784;-96.802;2024-01-25T07:55:23;13.10;99.90
19809;DHT22;48538;32.784;-96.802;2024-01-25T07:57:49;12.90;99.90
19809;DHT22;48538;32.784;-96.802;2024-01-25T08:00:15;12.20;99.90
19809;DHT22;48538;32.784;-96.802;2024-01-25T08:02:42;11.60;99.90
19809;DHT22;48538;32.784;-96.802;2024-01-25T08:05:11;11.40;99.90
19809;DHT22;48538;32.784;-96.802;2024-01-25T08:07:37;11.30;99.90
19809;DHT22;48538;32.784;-96.802;2024-01-25T08:10:05;11.10;99.90
19809;DHT22;48538;32.784;-96.802;2024-01-25T08:12:31;11.20;99.90
19809;DHT22;48538;32.784;-96.802;2024-01-25T08:14:57;11.00;99.90
19809;DHT22;48538;32.784;-96.802;2024-01-25T08:17:24;10.80;99.90
19809;DHT22;48538;32.784;-96.802;2024-01-25T08:19:50;10.80;99.90
19809;DHT22;48538;32.784;-96.802;2024-01-25T08:22:16;10.70;99.90
19809;DHT22;48538;32.784;-96.802;2024-01-25T08:24:42;10.70;99.90
19809;DHT22;48538;32.784;-96.802;2024-01-25T08:27:09;10.70;99.90
19809;DHT22;48538;32.784;-96.802;2024-01-25T08:29:35;10.70;99.90
19809;DHT22;48538;32.784;-96.802;2024-01-25T08:32:03;10.50;99.90
19809;DHT22;48538;32.784;-96.802;2024-01-25T08:34:29;10.40;99.90
19809;DHT22;48538;32.784;-96.802;2024-01-25T08:36:56;10.40;99.90
19809;DHT22;48538;32.784;-96.802;2024-01-25T08:39:22;10.40;99.90
19809;DHT22;48538;32.784;-96.802;2024-01-25T08:41:49;10.40;99.90
19809;DHT22;48538;32.784;-96.802;2024-01-25T08:44:16;10.60;99.90
19809;DHT22;48538;32.784;-96.802;2024-01-25T08:46:42;10.70;99.90
19809;DHT22;48538;32.784;-96.802;2024-01-25T08:49:09;10.90;99.90
19809;DHT22;48538;32.784;-96.802;2024-01-25T08:51:38;10.90;99.90
19809;DHT22;48538;32.784;-96.802;2024-01-25T08:54:04;10.90;99.90
19809;DHT22;48538;32.784;-96.802;2024-01-25T08:56:31;10.80;99.90
19809;DHT22;48538;32.784;-96.802;2024-01-25T08:58:57;10.80;99.90
19809;DHT22;48538;32.784;-96.802;2024-01-25T09:01:23;10.80;99.90
19809;DHT22;48538;32.784;-96.802;2024-01-25T09:03:49;10.80;99.90
19809;DHT22;48538;32.784;-96.802;2024-01-25T09:06:16;10.90;99.90
19809;DHT22;48538;32.784;-96.802;2024-01-25T09:08:42;11.00;99.90
19809;DHT22;48538;32.784;-96.802;2024-01-25T09:11:08;11.10;99.90
19809;DHT22;48538;32.784;-96.802;2024-01-25T09:13:35;11.20;99.90
19809;DHT22;48538;32.784;-96.802;2024-01-25T09:16:01;11.30;99.90
19809;DHT22;48538;32.784;-96.802;2024-01-25T09:18:27;11.40;99.90
19809;DHT22;48538;32.784;-96.802;2024-01-25T09:20:53;11.50;99.90
19809;DHT22;48538;32.784;-96.802;2024-01-25T09:23:20;11.60;99.90
19809;DHT22;48538;32.784;-96.802;2024-01-25T09:25:46;11.70;99.90
19809;DHT22;48538;32.784;-96.802;2024-01-25T09:28:12;11.80;99.90
19809;DHT22;48538;32.784;-96.802;2024-01-25T09:30:39;11.80;99.90
19809;DHT22;48538;32.784;-96.802;2024-01-25T09:33:06;11.80;99.90
19809;DHT22;48538;32.784;-96.802;2024-01-25T09:35:33;11.90;99.90
19809;DHT22;48538;32.784;-96.802;2024-01-25T09:37:59;12.00;99.90
19809;DHT22;48538;32.784;-96.802;2024-01-25T09:40:26;12.00;99.90
19809;DHT22;48538;32.784;-96.802;2024-01-25T09:42:53;12.00;99.90
19809;DHT22;48538;32.784;-96.802;2024-01-25T09:45:19;12.00;99.90
19809;DHT22;48538;32.784;-96.802;2024-01-25T09:47:46;12.10;99.90
19809;DHT22;48538;32.784;-96.802;2024-01-25T09:50:13;12.10;99.90
19809;DHT22;48538;32.784;-96.802;2024-01-25T09:52:43;12.20;99.90
19809;DHT22;48538;32.784;-96.802;2024-01-25T09:55:12;12.20;99.90
19809;DHT22;48538;32.784;-96.802;2024-01-25T09:57:46;12.30;99.90
19809;DHT22;48538;32.784;-96.802;2024-01-25T10:00:15;12.30;99.90
19809;DHT22;48538;32.784;-96.802;2024-01-25T10:02:41;12.40;99.90
19809;DHT22;48538;32.784;-96.802;2024-01-25T10:05:08;12.40;99.90
19809;DHT22;48538;32.784;-96.802;2024-01-25T10:07:42;12.30;99.90
19809;DHT22;48538;32.784;-96.802;2024-01-25T10:10:09;12.30;99.90
19809;DHT22;48538;32.784;-96.802;2024-01-25T10:12:37;12.30;99.90
19809;DHT22;48538;32.784;-96.802;2024-01-25T10:15:05;12.30;99.90
19809;DHT22;48538;32.784;-96.802;2024-01-25T10:17:32;12.40;99.90
19809;DHT22;48538;32.784;-96.802;2024-01-25T10:19:58;12.30;99.90
19809;DHT22;48538;32.784;-96.802;2024-01-25T10:22:25;12.40;99.90
19809;DHT22;48538;32.784;-96.802;2024-01-25T10:24:51;12.40;99.90
19809;DHT22;48538;32.784;-96.802;2024-01-25T10:27:19;12.40;99.90
19809;DHT22;48538;32.784;-96.802;2024-01-25T10:29:45;12.30;99.90
19809;DHT22;48538;32.784;-96.802;2024-01-25T10:32:12;12.30;99.90
19809;DHT22;48538;32.784;-96.802;2024-01-25T10:34:39;12.20;99.90
19809;DHT22;48538;32.784;-96.802;2024-01-25T10:37:06;12.20;99.90
19809;DHT22;48538;32.784;-96.802;2024-01-25T10:39:33;12.10;99.90
19809;DHT22;48538;32.784;-96.802;2024-01-25T10:42:00;12.20;99.90
19809;DHT22;48538;32.784;-96.802;2024-01-25T10:44:27;12.10;99.90
19809;DHT22;48538;32.784;-96.802;2024-01-25T10:46:53;11.80;99.90
19809;DHT22;48538;32.784;-96.802;2024-01-25T10:49:23;11.60;99.90
19809;DHT22;48538;32.784;-96.802;2024-01-25T10:51:51;11.50;99.90
19809;DHT22;48538;32.784;-96.802;2024-01-25T10:54:17;11.60;99.90
19809;DHT22;48538;32.784;-96.802;2024-01-25T10:56:46;11.50;99.90
19809;DHT22;48538;32.784;-96.802;2024-01-25T10:59:15;11.60;99.90
19809;DHT22;48538;32.784;-96.802;2024-01-25T11:01:48;11.60;99.90
19809;DHT22;48538;32.784;-96.802;2024-01-25T11:04:18;11.60;99.90
19809;DHT22;48538;32.784;-96.802;2024-01-25T11:06:45;11.50;99.90
19809;DHT22;48538;32.784;-96.802;2024-01-25T11:09:20;11.40;99.90
19809;DHT22;48538;32.784;-96.802;2024-01-25T11:11:47;11.40;99.90
19809;DHT22;48538;32.784;-96.802;2024-01-25T11:14:15;11.20;99.90
19809;DHT22;48538;32.784;-96.802;2024-01-25T11:16:44;11.00;99.90
19809;DHT22;48538;32.784;-96.802;2024-01-25T11:19:21;11.00;99.90
19809;DHT22;48538;32.784;-96.802;2024-01-25T11:21:49;11.10;99.90
19809;DHT22;48538;32.784;-96.802;2024-01-25T11:24:23;11.00;99.90
19809;DHT22;48538;32.784;-96.802;2024-01-25T11:26:53;10.70;99.90
19809;DHT22;48538;32.784;-96.802;2024-01-25T11:29:20;10.70;99.90
19809;DHT22;48538;32.784;-96.802;2024-01-25T11:31:49;10.60;99.90
19809;DHT22;48538;32.784;-96.802;2024-01-25T11:34:17;10.40;99.90
19809;DHT22;48538;32.784;-96.802;2024-01-25T11:36:47;10.60;99.90
19809;DHT22;48538;32.784;-96.802;2024-01-25T11:39:15;10.80;99.90
19809;DHT22;48538;32.784;-96.802;2024-01-25T11:41:45;10.80;99.90
19809;DHT22;48538;32.784;-96.802;2024-01-25T11:44:12;10.90;99.90
19809;DHT22;48538;32.784;-96.802;2024-01-25T11:46:38;11.00;99.90
19809;DHT22;48538;32.784;-96.802;2024-01-25T11:49:05;11.10;99.90
19809;DHT22;48538;32.784;-96.802;2024-01-25T11:51:33;11.10;99.90
19809;DHT22;48538;32.784;-96.802;2024-01-25T11:53:59;11.10;99.90
19809;DHT22;48538;32.784;-96.802;2024-01-25T11:56:29;11.20;99.90
19809;DHT22;48538;32.784;-96.802;2024-01-25T11:58:56;11.10;99.90
19809;DHT22;48538;32.784;-96.802;2024-01-25T12:01:24;11.10;99.90
19809;DHT22;48538;32.784;-96.802;2024-01-25T12:03:51;11.00;99.90
19809;DHT22;48538;32.784;-96.802;2024-01-25T12:06:18;11.00;99.90
19809;DHT22;48538;32.784;-96.802;2024-01-25T12:08:45;10.90;99.90
19809;DHT22;48538;32.784;-96.802;2024-01-25T12:11:17;10.70;99.90
19809;DHT22;48538;32.784;-96.802;2024-01-25T12:13:44;10.50;99.90
19809;DHT22;48538;32.784;-96.802;2024-01-25T12:16:12;10.40;99.90
19809;DHT22;48538;32.784;-96.802;2024-01-25T12:18:40;10.50;99.90
19809;DHT22;48538;32.784;-96.802;2024-01-25T12:21:07;10.50;99.90
19809;DHT22;48538;32.784;-96.802;2024-01-25T12:23:38;10.50;99.90
19809;DHT22;48538;32.784;-96.802;2024-01-25T12:26:06;10.60;99.90
19809;DHT22;48538;32.784;-96.802;2024-01-25T12:28:33;10.60;99.90
19809;DHT22;48538;32.784;-96.802;2024-01-25T12:31:00;10.70;99.90
19809;DHT22;48538;32.784;-96.802;2024-01-25T12:33:27;10.80;99.90
19809;DHT22;48538;32.784;-96.802;2024-01-25T12:35:54;10.90;99.90
19809;DHT22;48538;32.784;-96.802;2024-01-25T12:38:21;11.00;99.90
19809;DHT22;48538;32.784;-96.802;2024-01-25T12:40:49;11.10;99.90
19809;DHT22;48538;32.784;-96.802;2024-01-25T12:43:19;11.20;99.90
19809;DHT22;48538;32.784;-96.802;2024-01-25T12:45:47;11.30;99.90
19809;DHT22;48538;32.784;-96.802;2024-01-25T12:48:14;11.30;99.90
19809;DHT22;48538;32.784;-96.802;2024-01-25T12:50:41;11.30;99.90
19809;DHT22;48538;32.784;-96.802;2024-01-25T12:53:09;11.30;99.90
19809;DHT22;48538;32.784;-96.802;2024-01-25T12:55:37;11.30;99.90
19809;DHT22;48538;32.784;-96.802;2024-01-25T12:58:04;11.30;99.90
19809;DHT22;48538;32.784;-96.802;2024-01-25T13:00:30;11.30;99.90
19809;DHT22;48538;32.784;-96.802;2024-01-25T13:02:56;11.30;99.90
19809;DHT22;48538;32.784;-96.802;2024-01-25T13:05:23;11.30;99.90
19809;DHT22;48538;32.784;-96.802;2024-01-25T13:07:50;11.30;99.90
19809;DHT22;48538;32.784;-96.802;2024-01-25T13:10:16;11.20;99.90
19809;DHT22;48538;32.784;-96.802;2024-01-25T13:12:42;11.10;99.90
19809;DHT22;48538;32.784;-96.802;2024-01-25T13:15:09;11.10;99.90
19809;DHT22;48538;32.784;-96.802;2024-01-25T13:17:35;11.00;99.90
19809;DHT22;48538;32.784;-96.802;2024-01-25T13:20:06;11.00;99.90
19809;DHT22;48538;32.784;-96.802;2024-01-25T13:22:33;11.00;99.90
19809;DHT22;48538;32.784;-96.802;2024-01-25T13:25:03;11.00;99.90
19809;DHT22;48538;32.784;-96.802;2024-01-25T13:27:30;11.00;99.90
19809;DHT22;48538;32.784;-96.802;2024-01-25T13:29:56;11.10;99.90
19809;DHT22;48538;32.784;-96.802;2024-01-25T13:32:23;11.20;99.90
19809;DHT22;48538;32.784;-96.802;2024-01-25T13:34:52;11.30;99.90
19809;DHT22;48538;32.784;-96.802;2024-01-25T13:37:18;11.20;99.90
19809;DHT22;48538;32.784;-96.802;2024-01-25T13:39:44;11.10;99.90
19809;DHT22;48538;32.784;-96.802;2024-01-25T13:42:11;11.10;99.90
19809;DHT22;48538;32.784;-96.802;2024-01-25T13:44:37;11.10;99.90
19809;DHT22;48538;32.784;-96.802;2024-01-25T13:47:04;11.00;99.90
19809;DHT22;48538;32.784;-96.802;2024-01-25T13:49:31;11.00;99.90
19809;DHT22;48538;32.784;-96.802;2024-01-25T13:52:00;11.00;99.90
19809;DHT22;48538;32.784;-96.802;2024-01-25T13:54:29;11.00;99.90
19809;DHT22;48538;32.784;-96.802;2024-01-25T13:56:55;11.10;99.90
19809;DHT22;48538;32.784;-96.802;2024-01-25T13:59:21;11.10;99.90
19809;DHT22;48538;32.784;-96.802;2024-01-25T14:01:48;11.20;99.90
19809;DHT22;48538;32.784;-96.802;2024-01-25T14:04:16;11.10;99.90
19809;DHT22;48538;32.784;-96.802;2024-01-25T14:06:42;11.20;99.90
19809;DHT22;48538;32.784;-96.802;2024-01-25T14:09:08;11.10;99.90
19809;DHT22;48538;32.784;-96.802;2024-01-25T14:11:35;11.20;99.90
19809;DHT22;48538;32.784;-96.802;2024-01-25T14:14:01;11.30;99.90
19809;DHT22;48538;32.784;-96.802;2024-01-25T14:16:28;11.40;99.90
19809;DHT22;48538;32.784;-96.802;2024-01-25T14:18:54;11.40;99.90
19809;DHT22;48538;32.784;-96.802;2024-01-25T14:21:20;11.50;99.90
19809;DHT22;48538;32.784;-96.802;2024-01-25T14:23:47;11.50;99.90
19809;DHT22;48538;32.784;-96.802;2024-01-25T14:26:13;11.60;99.90
19809;DHT22;48538;32.784;-96.802;2024-01-25T14:28:39;11.70;99.90
19809;DHT22;48538;32.784;-96.802;2024-01-25T14:31:06;11.80;99.90
19809;DHT22;48538;32.784;-96.802;2024-01-25T14:33:32;11.80;99.90
19809;DHT22;48538;32.784;-96.802;2024-01-25T14:35:58;11.90;99.90
19809;DHT22;48538;32.784;-96.802;2024-01-25T14:38:24;11.90;99.90
19809;DHT22;48538;32.784;-96.802;2024-01-25T14:40:51;11.90;99.90
19809;DHT22;48538;32.784;-96.802;2024-01-25T14:43:17;11.70;99.90
19809;DHT22;48538;32.784;-96.802;2024-01-25T14:45:43;11.80;99.90
19809;DHT22;48538;32.784;-96.802;2024-01-25T14:48:10;11.90;99.90
19809;DHT22;48538;32.784;-96.802;2024-01-25T14:50:37;11.90;99.90
19809;DHT22;48538;32.784;-96.802;2024-01-25T14:53:03;12.00;99.90
19809;DHT22;48538;32.784;-96.802;2024-01-25T14:55:29;12.10;99.90
19809;DHT22;48538;32.784;-96.802;2024-01-25T14:57:56;12.20;99.90
19809;DHT22;48538;32.784;-96.802;2024-01-25T15:00:22;12.40;99.90